sensor_id;sensor_type;location;lat;lon;timestamp;P1;durP1;ratioP1;P2;durP2;ratioP2
313;SDS011;143;51.634;7.112;2023-02-01T00:01:27;31.35;;;9.75;;
313;SDS011;143;51.634;7.112;2023-02-01T00:03:53;39.27;;;8.73;;
313;SDS011;143;51.634;7.112;2023-02-01T00:06:19;40.97;;;9.20;;
313;SDS011;143;51.634;7.112;2023-02-01T00:08:44;35.93;;;8.03;;
313;SDS011;143;51.634;7.112;2023-02-01T00:11:11;28.13;;;7.37;;
313;SDS011;143;51.634;7.112;2023-02-01T00:13:38;35.65;;;8.80;;
313;SDS011;143;51.634;7.112;2023-02-01T00:18:32;29.70;;;6.22;;
313;SDS011;143;51.634;7.112;2023-02-01T00:20:59;24.40;;;7.55;;
313;SDS011;143;51.634;7.112;2023-02-01T00:23:25;30.85;;;8.35;;
313;SDS011;143;51.634;7.112;2023-02-01T00:25:51;25.38;;;6.35;;
313;SDS011;143;51.634;7.112;2023-02-01T00:28:16;27.20;;;5.90;;
313;SDS011;143;51.634;7.112;2023-02-01T00:30:42;20.57;;;6.30;;
313;SDS011;143;51.634;7.112;2023-02-01T00:33:08;21.30;;;5.60;;
313;SDS011;143;51.634;7.112;2023-02-01T00:35:34;20.77;;;5.30;;
313;SDS011;143;51.634;7.112;2023-02-01T00:38:00;24.40;;;6.10;;
313;SDS011;143;51.634;7.112;2023-02-01T00:40:26;33.42;;;5.55;;
313;SDS011;143;51.634;7.112;2023-02-01T00:42:52;27.57;;;5.13;;
313;SDS011;143;51.634;7.112;2023-02-01T00:45:18;17.15;;;5.38;;
313;SDS011;143;51.634;7.112;2023-02-01T00:47:45;22.35;;;4.47;;
313;SDS011;143;51.634;7.112;2023-02-01T00:50:10;24.67;;;5.50;;
313;SDS011;143;51.634;7.112;2023-02-01T00:52:36;15.77;;;4.57;;
313;SDS011;143;51.634;7.112;2023-02-01T00:55:02;19.77;;;4.33;;
313;SDS011;143;51.634;7.112;2023-02-01T00:57:28;22.08;;;5.15;;
313;SDS011;143;51.634;7.112;2023-02-01T00:59:54;20.53;;;4.33;;
313;SDS011;143;51.634;7.112;2023-02-01T01:02:19;20.27;;;4.30;;
313;SDS011;143;51.634;7.112;2023-02-01T01:04:45;28.97;;;4.27;;
313;SDS011;143;51.634;7.112;2023-02-01T01:07:11;12.80;;;4.53;;
313;SDS011;143;51.634;7.112;2023-02-01T01:09:36;31.97;;;4.40;;
313;SDS011;143;51.634;7.112;2023-02-01T01:12:02;17.67;;;4.80;;
313;SDS011;143;51.634;7.112;2023-02-01T01:14:28;21.10;;;4.23;;
313;SDS011;143;51.634;7.112;2023-02-01T01:16:54;27.52;;;4.93;;
313;SDS011;143;51.634;7.112;2023-02-01T01:19:20;15.20;;;4.63;;
313;SDS011;143;51.634;7.112;2023-02-01T01:21:46;23.73;;;5.20;;
313;SDS011;143;51.634;7.112;2023-02-01T01:24:11;21.83;;;4.10;;
313;SDS011;143;51.634;7.112;2023-02-01T01:26:37;32.23;;;5.40;;
313;SDS011;143;51.634;7.112;2023-02-01T01:29:03;23.43;;;4.50;;
313;SDS011;143;51.634;7.112;2023-02-01T01:31:31;16.33;;;4.60;;
313;SDS011;143;51.634;7.112;2023-02-01T01:33:57;19.58;;;4.60;;
313;SDS011;143;51.634;7.112;2023-02-01T01:36:24;22.52;;;4.80;;
313;SDS011;143;51.634;7.112;2023-02-01T01:38:51;22.42;;;5.50;;
313;SDS011;143;51.634;7.112;2023-02-01T01:41:21;17.13;;;4.70;;
313;SDS011;143;51.634;7.112;2023-02-01T01:43:55;15.82;;;4.20;;
313;SDS011;143;51.634;7.112;2023-02-01T01:46:24;21.65;;;4.15;;
313;SDS011;143;51.634;7.112;2023-02-01T01:51:49;31.50;;;4.97;;
313;SDS011;143;51.634;7.112;2023-02-01T01:54:24;25.65;;;4.30;;
313;SDS011;143;51.634;7.112;2023-02-01T01:57:08;28.85;;;6.28;;
313;SDS011;143;51.634;7.112;2023-02-01T02:03:03;20.52;;;5.72;;
313;SDS011;143;51.634;7.112;2023-02-01T02:05:38;25.63;;;6.07;;
313;SDS011;143;51.634;7.112;2023-02-01T02:08:04;26.83;;;6.47;;
313;SDS011;143;51.634;7.112;2023-02-01T02:10:30;18.20;;;4.60;;
313;SDS011;143;51.634;7.112;2023-02-01T02:13:15;24.40;;;4.95;;
313;SDS011;143;51.634;7.112;2023-02-01T02:15:45;33.10;;;6.15;;
313;SDS011;143;51.634;7.112;2023-02-01T02:30:45;29.67;;;5.60;;
313;SDS011;143;51.634;7.112;2023-02-01T02:36:37;20.80;;;5.03;;
313;SDS011;143;51.634;7.112;2023-02-01T02:39:16;26.65;;;6.25;;
313;SDS011;143;51.634;7.112;2023-02-01T02:42:07;33.30;;;4.95;;
313;SDS011;143;51.634;7.112;2023-02-01T02:45:29;35.45;;;5.18;;
313;SDS011;143;51.634;7.112;2023-02-01T02:48:21;27.83;;;4.93;;
313;SDS011;143;51.634;7.112;2023-02-01T02:51:01;19.88;;;4.15;;
313;SDS011;143;51.634;7.112;2023-02-01T02:56:51;19.65;;;3.95;;
313;SDS011;143;51.634;7.112;2023-02-01T02:59:38;19.35;;;4.85;;
313;SDS011;143;51.634;7.112;2023-02-01T03:02:25;17.30;;;4.20;;
313;SDS011;143;51.634;7.112;2023-02-01T03:05:11;20.40;;;4.40;;
313;SDS011;143;51.634;7.112;2023-02-01T03:13:00;25.73;;;4.63;;
313;SDS011;143;51.634;7.112;2023-02-01T03:15:32;27.40;;;4.15;;
313;SDS011;143;51.634;7.112;2023-02-01T03:18:33;19.40;;;6.75;;
313;SDS011;143;51.634;7.112;2023-02-01T03:21:10;28.90;;;3.88;;
313;SDS011;143;51.634;7.112;2023-02-01T03:23:59;21.63;;;4.65;;
313;SDS011;143;51.634;7.112;2023-02-01T03:26:31;19.83;;;4.32;;
313;SDS011;143;51.634;7.112;2023-02-01T03:29:08;28.67;;;3.75;;
313;SDS011;143;51.634;7.112;2023-02-01T03:31:37;33.30;;;4.40;;
313;SDS011;143;51.634;7.112;2023-02-01T03:34:03;22.40;;;4.10;;
313;SDS011;143;51.634;7.112;2023-02-01T03:36:30;22.63;;;3.73;;
313;SDS011;143;51.634;7.112;2023-02-01T03:41:40;21.13;;;3.60;;
313;SDS011;143;51.634;7.112;2023-02-01T03:44:20;24.95;;;4.50;;
313;SDS011;143;51.634;7.112;2023-02-01T03:47:06;25.95;;;4.45;;
313;SDS011;143;51.634;7.112;2023-02-01T03:52:20;18.67;;;6.13;;
313;SDS011;143;51.634;7.112;2023-02-01T03:54:51;17.02;;;3.28;;
313;SDS011;143;51.634;7.112;2023-02-01T03:57:19;21.85;;;4.25;;
313;SDS011;143;51.634;7.112;2023-02-01T03:59:54;24.83;;;4.28;;
313;SDS011;143;51.634;7.112;2023-02-01T04:02:33;18.50;;;3.35;;
313;SDS011;143;51.634;7.112;2023-02-01T04:04:58;21.87;;;4.03;;
313;SDS011;143;51.634;7.112;2023-02-01T04:07:24;34.77;;;4.77;;
313;SDS011;143;51.634;7.112;2023-02-01T04:09:50;16.80;;;4.43;;
313;SDS011;143;51.634;7.112;2023-02-01T04:12:15;23.70;;;4.90;;
313;SDS011;143;51.634;7.112;2023-02-01T04:14:41;28.47;;;4.10;;
313;SDS011;143;51.634;7.112;2023-02-01T04:17:07;26.77;;;4.70;;
313;SDS011;143;51.634;7.112;2023-02-01T04:19:33;29.92;;;4.50;;
313;SDS011;143;51.634;7.112;2023-02-01T04:21:58;27.03;;;5.80;;
313;SDS011;143;51.634;7.112;2023-02-01T04:24:24;26.80;;;5.40;;
313;SDS011;143;51.634;7.112;2023-02-01T04:26:50;20.73;;;4.30;;
313;SDS011;143;51.634;7.112;2023-02-01T04:29:15;26.90;;;5.03;;
313;SDS011;143;51.634;7.112;2023-02-01T04:31:41;28.57;;;4.60;;
313;SDS011;143;51.634;7.112;2023-02-01T04:34:07;30.23;;;5.80;;
313;SDS011;143;51.634;7.112;2023-02-01T04:36:32;24.90;;;5.10;;
313;SDS011;143;51.634;7.112;2023-02-01T04:38:58;31.87;;;6.03;;
313;SDS011;143;51.634;7.112;2023-02-01T04:41:24;19.17;;;4.47;;
313;SDS011;143;51.634;7.112;2023-02-01T04:43:50;23.50;;;4.87;;
313;SDS011;143;51.634;7.112;2023-02-01T04:46:17;24.80;;;4.65;;
313;SDS011;143;51.634;7.112;2023-02-01T04:48:43;18.97;;;4.33;;
313;SDS011;143;51.634;7.112;2023-02-01T04:51:09;26.20;;;4.70;;
313;SDS011;143;51.634;7.112;2023-02-01T04:53:36;27.83;;;5.63;;
313;SDS011;143;51.634;7.112;2023-02-01T04:56:01;35.07;;;5.40;;
313;SDS011;143;51.634;7.112;2023-02-01T04:58:27;25.30;;;4.63;;
313;SDS011;143;51.634;7.112;2023-02-01T05:00:53;19.00;;;4.53;;
313;SDS011;143;51.634;7.112;2023-02-01T05:03:19;26.93;;;4.00;;
313;SDS011;143;51.634;7.112;2023-02-01T05:05:46;26.33;;;4.93;;
313;SDS011;143;51.634;7.112;2023-02-01T05:08:13;27.70;;;4.90;;
313;SDS011;143;51.634;7.112;2023-02-01T05:10:38;26.90;;;5.33;;
313;SDS011;143;51.634;7.112;2023-02-01T05:13:04;60.27;;;5.70;;
313;SDS011;143;51.634;7.112;2023-02-01T05:15:50;20.73;;;5.70;;
313;SDS011;143;51.634;7.112;2023-02-01T05:18:16;36.75;;;5.55;;
313;SDS011;143;51.634;7.112;2023-02-01T05:20:41;19.80;;;4.47;;
313;SDS011;143;51.634;7.112;2023-02-01T05:23:07;39.20;;;5.53;;
313;SDS011;143;51.634;7.112;2023-02-01T05:25:33;33.87;;;5.43;;
313;SDS011;143;51.634;7.112;2023-02-01T05:27:58;30.17;;;5.17;;
313;SDS011;143;51.634;7.112;2023-02-01T05:30:24;35.97;;;5.43;;
313;SDS011;143;51.634;7.112;2023-02-01T05:32:50;22.37;;;4.60;;
313;SDS011;143;51.634;7.112;2023-02-01T05:35:17;21.27;;;4.90;;
313;SDS011;143;51.634;7.112;2023-02-01T05:37:42;27.87;;;4.67;;
313;SDS011;143;51.634;7.112;2023-02-01T05:40:08;21.03;;;4.00;;
313;SDS011;143;51.634;7.112;2023-02-01T05:42:34;41.00;;;5.03;;
313;SDS011;143;51.634;7.112;2023-02-01T05:45:00;24.47;;;5.30;;
313;SDS011;143;51.634;7.112;2023-02-01T05:47:26;28.30;;;5.27;;
313;SDS011;143;51.634;7.112;2023-02-01T05:49:52;20.10;;;5.57;;
313;SDS011;143;51.634;7.112;2023-02-01T05:52:17;27.23;;;5.33;;
313;SDS011;143;51.634;7.112;2023-02-01T05:54:44;31.45;;;4.43;;
313;SDS011;143;51.634;7.112;2023-02-01T05:57:11;26.88;;;4.15;;
313;SDS011;143;51.634;7.112;2023-02-01T05:59:38;25.80;;;5.40;;
313;SDS011;143;51.634;7.112;2023-02-01T06:02:06;26.23;;;6.60;;
313;SDS011;143;51.634;7.112;2023-02-01T06:04:32;36.72;;;5.38;;
313;SDS011;143;51.634;7.112;2023-02-01T06:06:58;34.73;;;4.83;;
313;SDS011;143;51.634;7.112;2023-02-01T06:09:24;27.00;;;4.20;;
313;SDS011;143;51.634;7.112;2023-02-01T06:11:49;39.90;;;4.47;;
313;SDS011;143;51.634;7.112;2023-02-01T06:14:15;26.20;;;7.30;;
313;SDS011;143;51.634;7.112;2023-02-01T06:16:41;27.60;;;5.10;;
313;SDS011;143;51.634;7.112;2023-02-01T06:19:06;26.07;;;5.03;;
313;SDS011;143;51.634;7.112;2023-02-01T06:21:34;31.95;;;6.28;;
313;SDS011;143;51.634;7.112;2023-02-01T06:24:01;33.88;;;4.80;;
313;SDS011;143;51.634;7.112;2023-02-01T06:26:26;23.73;;;5.70;;
313;SDS011;143;51.634;7.112;2023-02-01T06:28:53;25.85;;;4.38;;
313;SDS011;143;51.634;7.112;2023-02-01T06:31:20;31.80;;;5.03;;
313;SDS011;143;51.634;7.112;2023-02-01T06:33:46;30.33;;;4.63;;
313;SDS011;143;51.634;7.112;2023-02-01T06:36:12;29.33;;;5.57;;
313;SDS011;143;51.634;7.112;2023-02-01T06:38:38;24.92;;;5.05;;
313;SDS011;143;51.634;7.112;2023-02-01T06:41:04;38.40;;;5.00;;
313;SDS011;143;51.634;7.112;2023-02-01T06:43:30;41.20;;;5.55;;
313;SDS011;143;51.634;7.112;2023-02-01T06:46:01;33.20;;;5.47;;
313;SDS011;143;51.634;7.112;2023-02-01T06:48:28;28.13;;;5.18;;
313;SDS011;143;51.634;7.112;2023-02-01T06:50:54;25.55;;;5.72;;
313;SDS011;143;51.634;7.112;2023-02-01T06:53:20;26.43;;;4.90;;
313;SDS011;143;51.634;7.112;2023-02-01T06:55:56;28.23;;;4.80;;
313;SDS011;143;51.634;7.112;2023-02-01T06:58:23;26.83;;;6.32;;
313;SDS011;143;51.634;7.112;2023-02-01T07:00:49;29.67;;;5.70;;
313;SDS011;143;51.634;7.112;2023-02-01T07:03:15;24.67;;;4.93;;
313;SDS011;143;51.634;7.112;2023-02-01T07:05:41;32.33;;;5.40;;
313;SDS011;143;51.634;7.112;2023-02-01T07:08:07;28.65;;;6.07;;
313;SDS011;143;51.634;7.112;2023-02-01T07:10:36;27.53;;;4.13;;
313;SDS011;143;51.634;7.112;2023-02-01T07:13:02;20.38;;;4.50;;
313;SDS011;143;51.634;7.112;2023-02-01T07:15:27;21.30;;;3.90;;
313;SDS011;143;51.634;7.112;2023-02-01T07:17:56;26.20;;;5.17;;
313;SDS011;143;51.634;7.112;2023-02-01T07:20:22;30.17;;;5.57;;
313;SDS011;143;51.634;7.112;2023-02-01T07:22:48;27.37;;;5.33;;
313;SDS011;143;51.634;7.112;2023-02-01T07:25:13;21.90;;;4.53;;
313;SDS011;143;51.634;7.112;2023-02-01T07:27:39;19.63;;;5.20;;
313;SDS011;143;51.634;7.112;2023-02-01T07:30:06;18.10;;;4.63;;
313;SDS011;143;51.634;7.112;2023-02-01T07:32:32;30.05;;;4.85;;
313;SDS011;143;51.634;7.112;2023-02-01T07:34:58;20.33;;;5.57;;
313;SDS011;143;51.634;7.112;2023-02-01T07:37:24;22.80;;;5.57;;
313;SDS011;143;51.634;7.112;2023-02-01T07:39:50;25.52;;;4.47;;
313;SDS011;143;51.634;7.112;2023-02-01T07:42:16;30.58;;;5.65;;
313;SDS011;143;51.634;7.112;2023-02-01T07:44:42;20.85;;;4.90;;
313;SDS011;143;51.634;7.112;2023-02-01T07:47:08;25.60;;;8.70;;
313;SDS011;143;51.634;7.112;2023-02-01T07:49:34;23.07;;;4.77;;
313;SDS011;143;51.634;7.112;2023-02-01T07:51:59;25.57;;;5.60;;
313;SDS011;143;51.634;7.112;2023-02-01T07:54:25;33.17;;;5.83;;
313;SDS011;143;51.634;7.112;2023-02-01T07:56:51;29.30;;;4.70;;
313;SDS011;143;51.634;7.112;2023-02-01T07:59:16;27.23;;;4.37;;
313;SDS011;143;51.634;7.112;2023-02-01T08:01:42;25.63;;;5.77;;
313;SDS011;143;51.634;7.112;2023-02-01T08:04:09;32.87;;;6.13;;
313;SDS011;143;51.634;7.112;2023-02-01T08:06:37;32.28;;;4.75;;
313;SDS011;143;51.634;7.112;2023-02-01T08:09:06;28.95;;;5.07;;
313;SDS011;143;51.634;7.112;2023-02-01T08:11:35;42.92;;;5.97;;
313;SDS011;143;51.634;7.112;2023-02-01T08:14:02;22.73;;;4.80;;
313;SDS011;143;51.634;7.112;2023-02-01T08:16:29;27.88;;;5.03;;
313;SDS011;143;51.634;7.112;2023-02-01T08:18:55;28.20;;;5.80;;
313;SDS011;143;51.634;7.112;2023-02-01T08:21:22;12.70;;;4.37;;
313;SDS011;143;51.634;7.112;2023-02-01T08:23:50;30.50;;;5.38;;
313;SDS011;143;51.634;7.112;2023-02-01T08:26:21;16.55;;;5.28;;
313;SDS011;143;51.634;7.112;2023-02-01T08:28:49;34.95;;;6.10;;
313;SDS011;143;51.634;7.112;2023-02-01T08:31:19;21.63;;;5.10;;
313;SDS011;143;51.634;7.112;2023-02-01T08:33:48;27.17;;;5.18;;
313;SDS011;143;51.634;7.112;2023-02-01T08:36:16;25.08;;;5.80;;
313;SDS011;143;51.634;7.112;2023-02-01T08:38:42;26.35;;;4.95;;
313;SDS011;143;51.634;7.112;2023-02-01T08:41:09;31.63;;;4.97;;
313;SDS011;143;51.634;7.112;2023-02-01T08:43:37;34.28;;;5.65;;
313;SDS011;143;51.634;7.112;2023-02-01T08:46:04;30.27;;;4.70;;
313;SDS011;143;51.634;7.112;2023-02-01T08:48:31;26.35;;;6.18;;
313;SDS011;143;51.634;7.112;2023-02-01T08:50:57;35.30;;;5.78;;
313;SDS011;143;51.634;7.112;2023-02-01T08:53:26;25.50;;;4.80;;
313;SDS011;143;51.634;7.112;2023-02-01T08:55:51;39.27;;;5.80;;
313;SDS011;143;51.634;7.112;2023-02-01T08:58:17;29.33;;;5.87;;
313;SDS011;143;51.634;7.112;2023-02-01T09:00:44;34.95;;;6.65;;
313;SDS011;143;51.634;7.112;2023-02-01T09:03:10;33.37;;;5.70;;
313;SDS011;143;51.634;7.112;2023-02-01T09:05:37;38.63;;;5.80;;
313;SDS011;143;51.634;7.112;2023-02-01T09:08:03;23.52;;;5.65;;
313;SDS011;143;51.634;7.112;2023-02-01T09:10:29;31.03;;;5.03;;
313;SDS011;143;51.634;7.112;2023-02-01T09:12:56;27.38;;;5.97;;
313;SDS011;143;51.634;7.112;2023-02-01T09:15:21;27.10;;;5.23;;
313;SDS011;143;51.634;7.112;2023-02-01T09:17:47;34.00;;;4.90;;
313;SDS011;143;51.634;7.112;2023-02-01T09:20:14;34.17;;;6.53;;
313;SDS011;143;51.634;7.112;2023-02-01T09:22:40;35.70;;;7.03;;
313;SDS011;143;51.634;7.112;2023-02-01T09:25:06;39.73;;;5.67;;
313;SDS011;143;51.634;7.112;2023-02-01T09:27:32;33.30;;;8.00;;
313;SDS011;143;51.634;7.112;2023-02-01T09:29:58;32.13;;;6.23;;
313;SDS011;143;51.634;7.112;2023-02-01T09:32:24;30.10;;;5.83;;
313;SDS011;143;51.634;7.112;2023-02-01T09:34:50;26.40;;;5.63;;
313;SDS011;143;51.634;7.112;2023-02-01T09:37:17;28.55;;;5.90;;
313;SDS011;143;51.634;7.112;2023-02-01T09:39:43;25.40;;;5.55;;
313;SDS011;143;51.634;7.112;2023-02-01T09:47:31;17.92;;;5.35;;
313;SDS011;143;51.634;7.112;2023-02-01T09:52:25;37.70;;;5.23;;
313;SDS011;143;51.634;7.112;2023-02-01T09:54:58;27.38;;;5.95;;
313;SDS011;143;51.634;7.112;2023-02-01T09:57:40;26.35;;;6.13;;
313;SDS011;143;51.634;7.112;2023-02-01T10:00:17;33.38;;;5.93;;
313;SDS011;143;51.634;7.112;2023-02-01T10:02:50;29.92;;;5.85;;
313;SDS011;143;51.634;7.112;2023-02-01T10:05:21;46.08;;;7.50;;
313;SDS011;143;51.634;7.112;2023-02-01T10:08:13;33.75;;;6.25;;
313;SDS011;143;51.634;7.112;2023-02-01T10:10:49;26.38;;;5.97;;
313;SDS011;143;51.634;7.112;2023-02-01T10:16:01;25.48;;;5.28;;
313;SDS011;143;51.634;7.112;2023-02-01T10:21:37;26.73;;;6.85;;
313;SDS011;143;51.634;7.112;2023-02-01T10:26:58;27.00;;;5.70;;
313;SDS011;143;51.634;7.112;2023-02-01T10:29:30;34.55;;;6.30;;
313;SDS011;143;51.634;7.112;2023-02-01T10:32:01;23.83;;;7.50;;
313;SDS011;143;51.634;7.112;2023-02-01T10:34:28;24.42;;;5.40;;
313;SDS011;143;51.634;7.112;2023-02-01T10:37:18;25.93;;;5.90;;
313;SDS011;143;51.634;7.112;2023-02-01T10:39:47;22.80;;;6.22;;
313;SDS011;143;51.634;7.112;2023-02-01T10:42:15;40.13;;;5.28;;
313;SDS011;143;51.634;7.112;2023-02-01T10:44:45;28.80;;;5.82;;
313;SDS011;143;51.634;7.112;2023-02-01T10:47:13;26.45;;;6.50;;
313;SDS011;143;51.634;7.112;2023-02-01T10:49:45;39.72;;;5.40;;
313;SDS011;143;51.634;7.112;2023-02-01T10:52:17;25.52;;;6.20;;
313;SDS011;143;51.634;7.112;2023-02-01T10:54:50;28.30;;;5.72;;
313;SDS011;143;51.634;7.112;2023-02-01T10:57:20;27.73;;;5.30;;
313;SDS011;143;51.634;7.112;2023-02-01T10:59:54;27.13;;;4.88;;
313;SDS011;143;51.634;7.112;2023-02-01T11:02:29;19.67;;;5.40;;
313;SDS011;143;51.634;7.112;2023-02-01T11:05:01;39.38;;;5.45;;
313;SDS011;143;51.634;7.112;2023-02-01T11:07:34;26.55;;;4.78;;
313;SDS011;143;51.634;7.112;2023-02-01T11:10:01;26.30;;;6.85;;
313;SDS011;143;51.634;7.112;2023-02-01T11:12:28;28.25;;;7.03;;
313;SDS011;143;51.634;7.112;2023-02-01T11:15:03;24.67;;;5.60;;
313;SDS011;143;51.634;7.112;2023-02-01T11:17:50;20.90;;;5.00;;
313;SDS011;143;51.634;7.112;2023-02-01T11:22:47;24.13;;;5.28;;
313;SDS011;143;51.634;7.112;2023-02-01T11:25:17;30.48;;;5.53;;
313;SDS011;143;51.634;7.112;2023-02-01T11:27:44;25.67;;;5.80;;
313;SDS011;143;51.634;7.112;2023-02-01T11:30:14;23.50;;;5.57;;
313;SDS011;143;51.634;7.112;2023-02-01T11:32:44;21.33;;;4.70;;
313;SDS011;143;51.634;7.112;2023-02-01T11:35:14;38.17;;;6.37;;
313;SDS011;143;51.634;7.112;2023-02-01T11:37:44;25.63;;;5.40;;
313;SDS011;143;51.634;7.112;2023-02-01T11:40:28;28.95;;;5.40;;
313;SDS011;143;51.634;7.112;2023-02-01T11:43:00;28.63;;;5.63;;
313;SDS011;143;51.634;7.112;2023-02-01T11:45:32;32.33;;;5.80;;
313;SDS011;143;51.634;7.112;2023-02-01T11:48:00;26.93;;;5.47;;
313;SDS011;143;51.634;7.112;2023-02-01T11:56:01;27.70;;;5.23;;
313;SDS011;143;51.634;7.112;2023-02-01T12:01:30;29.73;;;5.60;;
313;SDS011;143;51.634;7.112;2023-02-01T12:07:09;23.83;;;6.10;;
313;SDS011;143;51.634;7.112;2023-02-01T12:09:46;22.23;;;4.80;;
313;SDS011;143;51.634;7.112;2023-02-01T12:15:44;22.67;;;5.07;;
313;SDS011;143;51.634;7.112;2023-02-01T12:21:39;27.80;;;5.18;;
313;SDS011;143;51.634;7.112;2023-02-01T12:37:37;37.17;;;4.70;;
313;SDS011;143;51.634;7.112;2023-02-01T12:40:28;20.98;;;4.30;;
313;SDS011;143;51.634;7.112;2023-02-01T12:45:53;13.00;;;3.60;;
313;SDS011;143;51.634;7.112;2023-02-01T12:48:37;23.20;;;4.80;;
313;SDS011;143;51.634;7.112;2023-02-01T12:51:24;25.50;;;4.60;;
313;SDS011;143;51.634;7.112;2023-02-01T12:53:55;28.03;;;5.17;;
313;SDS011;143;51.634;7.112;2023-02-01T12:56:28;18.57;;;4.20;;
313;SDS011;143;51.634;7.112;2023-02-01T12:59:03;33.93;;;5.63;;
313;SDS011;143;51.634;7.112;2023-02-01T13:01:35;25.50;;;4.10;;
313;SDS011;143;51.634;7.112;2023-02-01T13:04:11;27.43;;;4.17;;
313;SDS011;143;51.634;7.112;2023-02-01T13:06:50;31.57;;;5.67;;
313;SDS011;143;51.634;7.112;2023-02-01T13:09:32;20.97;;;4.23;;
313;SDS011;143;51.634;7.112;2023-02-01T13:12:11;22.00;;;4.37;;
313;SDS011;143;51.634;7.112;2023-02-01T13:17:39;26.88;;;3.60;;
313;SDS011;143;51.634;7.112;2023-02-01T13:20:13;25.63;;;3.70;;
313;SDS011;143;51.634;7.112;2023-02-01T13:23:02;16.02;;;4.35;;
313;SDS011;143;51.634;7.112;2023-02-01T13:25:51;18.73;;;4.23;;
313;SDS011;143;51.634;7.112;2023-02-01T13:33:55;17.00;;;3.80;;
313;SDS011;143;51.634;7.112;2023-02-01T13:44:58;17.53;;;4.10;;
313;SDS011;143;51.634;7.112;2023-02-01T13:47:30;19.20;;;3.40;;
313;SDS011;143;51.634;7.112;2023-02-01T13:50:02;21.60;;;3.97;;
313;SDS011;143;51.634;7.112;2023-02-01T13:52:39;27.77;;;4.50;;
313;SDS011;143;51.634;7.112;2023-02-01T13:55:22;12.13;;;4.03;;
313;SDS011;143;51.634;7.112;2023-02-01T13:58:15;37.47;;;6.23;;
313;SDS011;143;51.634;7.112;2023-02-01T14:00:41;27.25;;;3.95;;
313;SDS011;143;51.634;7.112;2023-02-01T14:03:12;27.33;;;4.20;;
313;SDS011;143;51.634;7.112;2023-02-01T14:13:23;27.93;;;3.97;;
313;SDS011;143;51.634;7.112;2023-02-01T14:34:28;12.87;;;3.57;;
313;SDS011;143;51.634;7.112;2023-02-01T14:37:37;26.80;;;5.30;;
313;SDS011;143;51.634;7.112;2023-02-01T14:42:44;22.30;;;3.67;;
313;SDS011;143;51.634;7.112;2023-02-01T14:47:54;23.30;;;4.13;;
313;SDS011;143;51.634;7.112;2023-02-01T14:50:25;28.57;;;4.53;;
313;SDS011;143;51.634;7.112;2023-02-01T15:06:26;23.47;;;4.63;;
313;SDS011;143;51.634;7.112;2023-02-01T15:09:08;26.87;;;5.30;;
313;SDS011;143;51.634;7.112;2023-02-01T15:14:28;20.47;;;5.20;;
313;SDS011;143;51.634;7.112;2023-02-01T15:16:57;18.87;;;4.30;;
313;SDS011;143;51.634;7.112;2023-02-01T15:19:24;21.77;;;4.30;;
313;SDS011;143;51.634;7.112;2023-02-01T15:21:53;24.33;;;4.23;;
313;SDS011;143;51.634;7.112;2023-02-01T15:24:25;21.87;;;4.17;;
313;SDS011;143;51.634;7.112;2023-02-01T15:26:53;26.13;;;4.20;;
313;SDS011;143;51.634;7.112;2023-02-01T15:29:21;19.73;;;4.20;;
313;SDS011;143;51.634;7.112;2023-02-01T15:31:51;18.30;;;4.00;;
313;SDS011;143;51.634;7.112;2023-02-01T15:34:18;23.67;;;4.10;;
313;SDS011;143;51.634;7.112;2023-02-01T15:36:44;19.07;;;3.33;;
313;SDS011;143;51.634;7.112;2023-02-01T15:39:29;23.10;;;4.27;;
313;SDS011;143;51.634;7.112;2023-02-01T15:41:56;26.83;;;4.50;;
313;SDS011;143;51.634;7.112;2023-02-01T15:44:33;24.90;;;4.10;;
313;SDS011;143;51.634;7.112;2023-02-01T15:47:15;21.53;;;3.93;;
313;SDS011;143;51.634;7.112;2023-02-01T15:49:43;18.00;;;3.10;;
313;SDS011;143;51.634;7.112;2023-02-01T15:52:22;17.83;;;3.90;;
313;SDS011;143;51.634;7.112;2023-02-01T15:54:53;26.33;;;3.97;;
313;SDS011;143;51.634;7.112;2023-02-01T15:57:31;16.20;;;4.47;;
313;SDS011;143;51.634;7.112;2023-02-01T16:00:04;24.23;;;4.40;;
313;SDS011;143;51.634;7.112;2023-02-01T16:02:34;13.73;;;3.40;;
313;SDS011;143;51.634;7.112;2023-02-01T16:08:00;26.53;;;4.77;;
313;SDS011;143;51.634;7.112;2023-02-01T16:10:41;25.17;;;4.47;;
313;SDS011;143;51.634;7.112;2023-02-01T16:13:12;17.83;;;3.53;;
313;SDS011;143;51.634;7.112;2023-02-01T16:15:39;21.13;;;4.57;;
313;SDS011;143;51.634;7.112;2023-02-01T16:18:05;22.10;;;4.63;;
313;SDS011;143;51.634;7.112;2023-02-01T16:20:37;19.03;;;5.20;;
313;SDS011;143;51.634;7.112;2023-02-01T16:23:05;23.20;;;4.07;;
313;SDS011;143;51.634;7.112;2023-02-01T16:25:31;26.53;;;4.30;;
313;SDS011;143;51.634;7.112;2023-02-01T16:27:57;21.57;;;3.90;;
313;SDS011;143;51.634;7.112;2023-02-01T16:30:23;22.03;;;5.00;;
313;SDS011;143;51.634;7.112;2023-02-01T16:32:52;24.07;;;4.60;;
313;SDS011;143;51.634;7.112;2023-02-01T16:35:29;22.83;;;4.50;;
313;SDS011;143;51.634;7.112;2023-02-01T16:38:00;28.57;;;4.53;;
313;SDS011;143;51.634;7.112;2023-02-01T16:40:37;21.73;;;3.87;;
313;SDS011;143;51.634;7.112;2023-02-01T16:43:12;30.07;;;4.50;;
313;SDS011;143;51.634;7.112;2023-02-01T16:45:39;23.97;;;4.93;;
313;SDS011;143;51.634;7.112;2023-02-01T16:48:05;36.90;;;5.57;;
313;SDS011;143;51.634;7.112;2023-02-01T16:50:32;33.03;;;5.10;;
313;SDS011;143;51.634;7.112;2023-02-01T16:52:58;13.73;;;3.93;;
313;SDS011;143;51.634;7.112;2023-02-01T16:55:26;8.60;;;2.60;;
313;SDS011;143;51.634;7.112;2023-02-01T16:57:52;8.83;;;1.73;;
313;SDS011;143;51.634;7.112;2023-02-01T17:00:18;8.40;;;2.33;;
313;SDS011;143;51.634;7.112;2023-02-01T17:02:45;5.57;;;2.03;;
313;SDS011;143;51.634;7.112;2023-02-01T17:05:10;11.33;;;2.20;;
313;SDS011;143;51.634;7.112;2023-02-01T17:07:36;16.00;;;2.47;;
313;SDS011;143;51.634;7.112;2023-02-01T17:10:05;11.40;;;2.50;;
313;SDS011;143;51.634;7.112;2023-02-01T17:12:42;6.22;;;2.15;;
313;SDS011;143;51.634;7.112;2023-02-01T17:15:08;10.77;;;2.00;;
313;SDS011;143;51.634;7.112;2023-02-01T17:17:36;5.90;;;2.30;;
313;SDS011;143;51.634;7.112;2023-02-01T17:20:03;8.60;;;2.80;;
313;SDS011;143;51.634;7.112;2023-02-01T17:22:30;7.82;;;2.15;;
313;SDS011;143;51.634;7.112;2023-02-01T17:24:57;7.30;;;1.80;;
313;SDS011;143;51.634;7.112;2023-02-01T17:27:22;6.60;;;2.90;;
313;SDS011;143;51.634;7.112;2023-02-01T17:29:48;4.50;;;1.73;;
313;SDS011;143;51.634;7.112;2023-02-01T17:32:16;22.37;;;2.27;;
313;SDS011;143;51.634;7.112;2023-02-01T17:34:47;13.30;;;2.50;;
313;SDS011;143;51.634;7.112;2023-02-01T17:37:17;11.87;;;2.17;;
313;SDS011;143;51.634;7.112;2023-02-01T17:39:51;9.70;;;2.60;;
313;SDS011;143;51.634;7.112;2023-02-01T17:42:20;13.63;;;2.40;;
313;SDS011;143;51.634;7.112;2023-02-01T17:44:46;9.17;;;3.40;;
313;SDS011;143;51.634;7.112;2023-02-01T17:47:11;11.40;;;2.53;;
313;SDS011;143;51.634;7.112;2023-02-01T17:49:37;7.83;;;2.27;;
313;SDS011;143;51.634;7.112;2023-02-01T17:52:07;20.83;;;4.10;;
313;SDS011;143;51.634;7.112;2023-02-01T17:54:38;11.00;;;2.70;;
313;SDS011;143;51.634;7.112;2023-02-01T17:57:08;15.00;;;3.40;;
313;SDS011;143;51.634;7.112;2023-02-01T17:59:36;22.77;;;4.45;;
313;SDS011;143;51.634;7.112;2023-02-01T18:02:02;14.17;;;4.03;;
313;SDS011;143;51.634;7.112;2023-02-01T18:04:28;15.13;;;5.07;;
313;SDS011;143;51.634;7.112;2023-02-01T18:06:53;24.40;;;4.93;;
313;SDS011;143;51.634;7.112;2023-02-01T18:09:19;21.40;;;3.90;;
313;SDS011;143;51.634;7.112;2023-02-01T18:11:45;19.13;;;4.63;;
313;SDS011;143;51.634;7.112;2023-02-01T18:14:13;14.52;;;3.70;;
313;SDS011;143;51.634;7.112;2023-02-01T18:16:38;23.00;;;3.40;;
313;SDS011;143;51.634;7.112;2023-02-01T18:19:05;17.73;;;3.33;;
313;SDS011;143;51.634;7.112;2023-02-01T18:21:32;8.30;;;2.97;;
313;SDS011;143;51.634;7.112;2023-02-01T18:24:02;5.97;;;2.23;;
313;SDS011;143;51.634;7.112;2023-02-01T18:26:28;4.72;;;1.92;;